Hereford, AZ (85615)

10:56 AM MST on July 03, 2015 (GMT -0700)
Three Canyons Ranch | | Change Station
CLOSE
Current Station
Personal Weather Station
Location: Hereford, AZ
Elevation: 4551 ft
Nearby Weather Stations

Elev 4551 ft 31.40 °N, 110.19 °W | Updated 27 seconds ago

Partly Cloudy
Partly Cloudy
87.1 °F
Feels Like 86 °F
N
6.9
Wind Variable Wind from NNE
Gusts 7.0 mph

Today
High -- | Low -- °F
--% Chance of Precip.
Yesterday
High -- | Low -- °F
Precip. -- in
5:20 AM 7:29 PM
Waning Gibbous, 96% visible
Pressure 29.91 in
Visibility 9.0 miles
Clouds Few 23000 ft
Heat Index 86 °F
Dew Point 58 °F
Humidity 37%
Rainfall 0.00 in
Snow Depth Not available.
UV 9 out of 12
Pollen 4.10 out of 12
Air Quality Not available.
Flu Activity Not available.
METAR KFHU 031658Z AUTO 12005KT 9SM FEW230 25/13 A3014 RMK AO2 SLP126 T02540125

More Conditions Fewer Conditions

Pressure 29.91 in
Visibility 9.0 miles
Clouds Few 23000 ft
Heat Index 86 °F
Dew Point 58 °F
Humidity 37%
Rainfall 0.00 in
Snow Depth Not available.
UV 9 out of 12
Pollen 4.10 out of 12
Air Quality Not available.
Flu Activity Not available.
METAR KFHU 031658Z AUTO 12005KT 9SM FEW230 25/13 A3014 RMK AO2 SLP126 T02540125

More Conditions Fewer Conditions

10-Day Weather Forecast

×

Almanac

Astronomy

Jul. 03, 2015 Rise Set
Actual Time
Civil Twilight
Nautical Twilight
Astronomical Twilight
Moon
Length of Visible Light
Length of Day
Tomorrow will be .
, % of the Moon is Illuminated

Today's Extremes

State Highs State Lows

Community

WunderPhotos

Upload Photos

1,834,727 photos uploaded!

WunderBlogs® & News

Nearby

Air Quality

  Air Quality AQ Index Pollutant
Not available.

Snow Depth

Station Depth Elevation

Earthquake Activity

City Distance Mag. Time & Date
Minimum magnitude displayed is 2.5.

Coastal Water Temperatures

Place Temperature

Stations

Nearby Weather Stations

Station Location Temp. Windchill Dew Point Humidity Wind Precip. Elev Updated Type